createdAt,value
2019-01-29T00:02:16.435Z,97.90
2019-01-29T00:04:44.467Z,98.00
2019-01-29T00:07:12.418Z,98.10
2019-01-29T00:09:40.050Z,98.10
2019-01-29T00:12:07.916Z,98.10
2019-01-29T00:14:35.359Z,98.20
2019-01-29T00:17:03.241Z,98.20
2019-01-29T00:19:31.105Z,98.20
2019-01-29T00:21:59.132Z,98.30
2019-01-29T00:24:27.000Z,98.30
2019-01-29T00:26:54.847Z,98.30
2019-01-29T00:29:23.332Z,98.40
2019-01-29T00:31:50.848Z,98.40
2019-01-29T00:34:18.707Z,98.50
2019-01-29T00:36:46.533Z,98.50
2019-01-29T00:39:14.306Z,98.70
2019-01-29T00:41:42.131Z,98.70
2019-01-29T00:44:09.728Z,98.60
2019-01-29T00:46:37.064Z,98.60
2019-01-29T00:49:04.947Z,98.70
2019-01-29T00:51:32.453Z,98.60
2019-01-29T00:54:00.136Z,98.70
2019-01-29T00:56:28.004Z,98.60
2019-01-29T00:58:55.529Z,98.70
2019-01-29T01:01:23.226Z,98.70
2019-01-29T01:03:50.888Z,98.70
2019-01-29T01:06:18.611Z,98.70
2019-01-29T01:08:47.203Z,98.60
2019-01-29T01:11:15.997Z,98.60
2019-01-29T01:13:43.488Z,98.60
2019-01-29T01:16:11.155Z,98.60
2019-01-29T01:18:39.086Z,98.40
2019-01-29T01:21:06.791Z,98.60
2019-01-29T01:23:34.313Z,98.60
2019-01-29T01:26:01.968Z,98.60
2019-01-29T01:28:29.328Z,98.60
2019-01-29T01:30:58.459Z,98.70
2019-01-29T01:33:27.043Z,98.70
2019-01-29T01:35:54.659Z,98.70
2019-01-29T01:38:24.531Z,98.60
2019-01-29T01:40:52.203Z,98.70
2019-01-29T01:43:19.643Z,98.70
2019-01-29T01:45:47.610Z,98.70
2019-01-29T01:48:15.372Z,98.70
2019-01-29T01:50:42.843Z,98.70
2019-01-29T01:53:10.699Z,98.70
2019-01-29T01:55:38.558Z,98.80
2019-01-29T01:58:06.222Z,99.10
2019-01-29T02:00:34.572Z,99.20
2019-01-29T02:03:02.058Z,98.90
2019-01-29T02:05:30.441Z,99.00
2019-01-29T02:07:59.315Z,99.00
2019-01-29T02:10:30.465Z,99.00
2019-01-29T02:12:58.109Z,99.00
2019-01-29T02:15:25.674Z,99.00
2019-01-29T02:17:53.166Z,99.00
2019-01-29T02:20:20.766Z,99.10
2019-01-29T02:22:48.341Z,99.20
2019-01-29T02:25:15.899Z,99.10
2019-01-29T02:27:43.658Z,99.20
2019-01-29T02:30:20.971Z,99.10
2019-01-29T02:32:48.556Z,99.10
2019-01-29T02:35:16.329Z,99.10
2019-01-29T02:37:43.846Z,99.20
2019-01-29T02:40:18.192Z,99.20
2019-01-29T02:42:45.734Z,99.20
2019-01-29T02:45:14.081Z,99.20
2019-01-29T02:47:41.949Z,99.10
2019-01-29T02:50:10.494Z,99.10
2019-01-29T02:52:38.191Z,99.20
2019-01-29T02:55:07.591Z,99.10
2019-01-29T02:57:35.157Z,99.10
2019-01-29T03:00:04.661Z,99.10
2019-01-29T03:02:33.481Z,99.20
2019-01-29T03:05:00.929Z,99.20
2019-01-29T03:07:31.850Z,99.20
2019-01-29T03:09:59.300Z,99.20
2019-01-29T03:12:27.663Z,99.10
2019-01-29T03:14:55.390Z,99.10
2019-01-29T03:17:22.881Z,99.10
2019-01-29T03:19:50.288Z,99.20
2019-01-29T03:22:17.814Z,99.20
2019-01-29T03:24:45.327Z,99.30
2019-01-29T03:27:12.940Z,99.20
2019-01-29T03:29:40.548Z,99.20
2019-01-29T03:32:08.180Z,99.20
2019-01-29T03:34:35.606Z,99.10
2019-01-29T03:37:03.395Z,99.10
2019-01-29T03:39:31.170Z,99.10
2019-01-29T03:41:58.644Z,99.20
2019-01-29T03:44:26.322Z,99.20
2019-01-29T03:46:53.750Z,99.20
2019-01-29T03:49:21.198Z,99.30
2019-01-29T03:51:48.870Z,99.50
2019-01-29T03:54:16.838Z,99.90
2019-01-29T03:56:44.718Z,99.70
2019-01-29T03:59:12.338Z,99.60
2019-01-29T04:01:40.107Z,99.50
2019-01-29T04:04:07.719Z,99.40
2019-01-29T04:06:35.121Z,99.20
2019-01-29T04:09:06.247Z,99.10
2019-01-29T04:11:33.655Z,99.00
2019-01-29T04:14:01.457Z,99.00
2019-01-29T04:16:29.076Z,99.00
2019-01-29T04:18:56.608Z,98.90
2019-01-29T04:21:24.377Z,99.00
2019-01-29T04:23:51.968Z,98.70
2019-01-29T04:26:19.735Z,98.50
2019-01-29T04:28:48.109Z,98.30
2019-01-29T04:31:15.872Z,98.30
2019-01-29T04:33:43.472Z,98.40
2019-01-29T04:36:11.099Z,98.20
2019-01-29T04:38:38.446Z,98.00
2019-01-29T04:41:05.995Z,97.90
2019-01-29T04:43:33.561Z,97.80
2019-01-29T04:46:01.415Z,97.70
2019-01-29T04:48:28.890Z,97.70
2019-01-29T04:50:56.445Z,97.70
2019-01-29T04:53:24.143Z,97.60
2019-01-29T04:55:51.706Z,97.50
2019-01-29T04:58:20.967Z,97.40
2019-01-29T05:00:49.371Z,97.40
2019-01-29T05:03:18.200Z,97.40
2019-01-29T05:05:45.935Z,97.40
2019-01-29T05:08:13.528Z,97.50
2019-01-29T05:10:41.154Z,97.40
2019-01-29T05:13:10.318Z,97.60
2019-01-29T05:15:37.815Z,97.60
2019-01-29T05:18:05.714Z,97.70
2019-01-29T05:20:33.411Z,97.80
2019-01-29T05:23:02.978Z,98.00
2019-01-29T05:25:30.537Z,97.90
2019-01-29T05:27:58.127Z,97.80
2019-01-29T05:30:25.676Z,97.50
2019-01-29T05:32:53.324Z,97.40
2019-01-29T05:35:21.270Z,97.40
2019-01-29T05:37:49.634Z,97.70
2019-01-29T05:40:20.085Z,97.30
2019-01-29T05:42:47.642Z,97.30
2019-01-29T05:45:17.071Z,97.30
2019-01-29T05:47:44.740Z,97.20
2019-01-29T05:50:13.194Z,97.30
2019-01-29T05:52:41.230Z,97.30
2019-01-29T05:55:09.118Z,97.30
2019-01-29T05:57:36.548Z,97.30
2019-01-29T06:00:07.484Z,97.40
2019-01-29T06:02:34.975Z,97.20
2019-01-29T06:05:03.261Z,97.00
2019-01-29T06:07:30.702Z,97.00
2019-01-29T06:09:58.124Z,96.80
2019-01-29T06:12:25.571Z,96.60
2019-01-29T06:14:52.917Z,96.70
2019-01-29T06:17:27.386Z,96.70
2019-01-29T06:19:49.686Z,96.80
2019-01-29T06:22:17.353Z,96.80
2019-01-29T06:24:44.846Z,96.80
2019-01-29T06:27:12.297Z,96.80
2019-01-29T06:29:39.805Z,96.90
2019-01-29T06:32:07.391Z,96.70
2019-01-29T06:34:34.855Z,96.70
2019-01-29T06:37:02.230Z,96.80
2019-01-29T06:39:30.386Z,96.80
2019-01-29T06:41:58.102Z,96.80
2019-01-29T06:44:25.552Z,96.90
2019-01-29T06:46:52.948Z,96.90
2019-01-29T06:49:20.414Z,96.80
2019-01-29T06:51:47.798Z,96.80
2019-01-29T06:54:15.323Z,96.70
2019-01-29T06:56:42.985Z,96.70
2019-01-29T06:59:10.485Z,96.40
2019-01-29T07:01:38.349Z,96.20
2019-01-29T07:04:05.897Z,96.10
2019-01-29T07:06:34.142Z,95.90
2019-01-29T07:09:01.594Z,96.00
2019-01-29T07:11:31.094Z,96.10
2019-01-29T07:13:58.490Z,96.20
2019-01-29T07:16:42.331Z,96.10
2019-01-29T07:19:15.119Z,96.20
2019-01-29T07:21:42.624Z,96.50
2019-01-29T07:24:10.237Z,96.20
2019-01-29T07:26:37.846Z,96.10
2019-01-29T07:29:05.484Z,96.40
2019-01-29T07:31:32.959Z,96.50
2019-01-29T07:34:00.775Z,96.20
2019-01-29T07:36:28.144Z,95.80
2019-01-29T07:38:55.733Z,95.30
2019-01-29T07:41:23.220Z,94.70
2019-01-29T07:43:50.729Z,93.50
2019-01-29T07:46:18.425Z,93.00
2019-01-29T07:48:45.875Z,91.60
2019-01-29T07:51:13.404Z,90.50
2019-01-29T07:53:40.789Z,90.10
2019-01-29T07:56:08.425Z,89.90
2019-01-29T07:58:35.775Z,90.10
2019-01-29T08:01:03.776Z,90.00
2019-01-29T08:03:31.616Z,90.00
2019-01-29T08:05:59.245Z,89.00
2019-01-29T08:08:26.977Z,83.40
2019-01-29T08:10:54.367Z,76.00
2019-01-29T08:13:22.094Z,68.70
2019-01-29T08:15:50.615Z,66.00
2019-01-29T08:18:18.269Z,64.10
2019-01-29T08:20:45.862Z,62.20
2019-01-29T08:23:14.696Z,59.00
2019-01-29T08:25:47.657Z,54.70
2019-01-29T08:28:11.899Z,52.40
2019-01-29T08:30:39.582Z,51.00
2019-01-29T08:33:07.720Z,53.10
2019-01-29T08:35:35.324Z,55.00
2019-01-29T08:38:03.798Z,55.70
2019-01-29T08:40:31.654Z,54.80
2019-01-29T08:42:59.473Z,54.90
2019-01-29T08:45:27.149Z,55.30
2019-01-29T08:47:54.686Z,54.20
2019-01-29T08:50:22.664Z,49.20
2019-01-29T08:52:50.350Z,45.00
2019-01-29T08:55:18.223Z,42.00
2019-01-29T08:57:45.688Z,37.90
2019-01-29T09:00:14.622Z,36.00
2019-01-29T09:02:42.519Z,33.10
2019-01-29T09:05:10.224Z,31.50
2019-01-29T09:07:37.559Z,30.20
2019-01-29T09:10:07.394Z,30.00
2019-01-29T09:12:35.075Z,31.60
2019-01-29T09:15:03.251Z,34.80
2019-01-29T09:17:30.899Z,38.30
2019-01-29T09:19:58.575Z,41.40
2019-01-29T09:22:26.380Z,43.50
2019-01-29T09:24:53.839Z,45.80
2019-01-29T09:27:21.573Z,48.30
2019-01-29T09:29:48.980Z,49.90
2019-01-29T09:32:17.088Z,52.10
2019-01-29T09:34:44.560Z,53.80
2019-01-29T09:37:12.225Z,54.50
2019-01-29T09:39:40.041Z,50.00
2019-01-29T09:42:07.867Z,42.80
2019-01-29T09:44:35.383Z,38.00
2019-01-29T09:47:03.502Z,38.40
2019-01-29T09:49:32.042Z,38.70
2019-01-29T09:52:00.321Z,37.20
2019-01-29T09:54:28.932Z,35.30
2019-01-29T09:56:56.629Z,35.80
2019-01-29T09:59:28.782Z,38.70
2019-01-29T10:01:56.606Z,40.30
2019-01-29T10:04:25.313Z,39.00
2019-01-29T10:06:52.955Z,36.30
2019-01-29T10:09:20.763Z,33.90
2019-01-29T10:11:49.667Z,32.10
2019-01-29T10:14:17.498Z,31.70
2019-01-29T10:16:45.010Z,33.90
2019-01-29T10:19:12.502Z,38.00
2019-01-29T10:21:40.355Z,41.50
2019-01-29T10:24:09.122Z,45.30
2019-01-29T10:26:36.566Z,48.80
2019-01-29T10:29:04.487Z,52.30
2019-01-29T10:31:32.056Z,55.10
2019-01-29T10:33:59.842Z,57.40
2019-01-29T10:36:27.323Z,59.80
2019-01-29T10:38:55.067Z,62.40
2019-01-29T10:41:22.557Z,64.10
2019-01-29T10:43:50.044Z,65.10
2019-01-29T10:46:17.566Z,66.20
2019-01-29T10:48:45.036Z,67.00
2019-01-29T10:51:12.887Z,67.70
2019-01-29T10:53:40.709Z,68.40
2019-01-29T10:56:08.833Z,69.60
2019-01-29T10:58:36.240Z,69.50
2019-01-29T11:01:05.742Z,70.50
2019-01-29T11:03:33.672Z,71.10
2019-01-29T11:06:01.389Z,71.70
2019-01-29T11:08:29.539Z,71.70
2019-01-29T11:10:56.928Z,72.40
2019-01-29T11:13:24.721Z,72.70
2019-01-29T11:15:52.344Z,73.20
2019-01-29T11:18:22.008Z,73.70
2019-01-29T11:20:49.746Z,73.90
2019-01-29T11:23:17.350Z,74.40
2019-01-29T11:25:44.956Z,74.90
2019-01-29T11:28:12.554Z,75.10
2019-01-29T11:30:41.179Z,75.10
2019-01-29T11:33:08.761Z,75.60
2019-01-29T11:35:36.393Z,75.20
2019-01-29T11:38:04.303Z,75.20
2019-01-29T11:40:32.289Z,75.80
2019-01-29T11:43:01.256Z,76.30
2019-01-29T11:45:53.255Z,76.50
2019-01-29T11:48:21.068Z,76.80
2019-01-29T11:50:51.623Z,77.20
2019-01-29T11:53:19.208Z,77.50
2019-01-29T11:55:51.071Z,78.10
2019-01-29T11:58:19.236Z,79.10
2019-01-29T12:01:09.743Z,80.10
2019-01-29T12:03:39.022Z,81.10
2019-01-29T12:06:09.548Z,82.00
2019-01-29T12:08:37.747Z,82.00
2019-01-29T12:11:06.872Z,82.40
2019-01-29T12:13:35.200Z,82.80
2019-01-29T12:16:03.793Z,83.00
2019-01-29T12:18:31.448Z,84.00
2019-01-29T12:21:00.206Z,83.80
2019-01-29T12:23:28.714Z,84.10
2019-01-29T12:25:57.486Z,83.70
2019-01-29T12:28:25.072Z,83.80
2019-01-29T12:30:53.669Z,83.90
2019-01-29T12:33:22.171Z,84.10
2019-01-29T12:35:49.672Z,84.40
2019-01-29T12:38:17.052Z,84.80
2019-01-29T12:40:44.712Z,84.40
2019-01-29T12:43:12.281Z,84.50
2019-01-29T12:45:39.829Z,84.70
2019-01-29T12:48:07.779Z,84.10
2019-01-29T12:50:36.761Z,83.80
2019-01-29T12:53:09.452Z,83.90
2019-01-29T12:55:37.100Z,83.80
2019-01-29T12:58:05.272Z,84.30
2019-01-29T13:00:40.093Z,84.80
2019-01-29T13:03:07.857Z,84.60
2019-01-29T13:05:35.313Z,84.80
2019-01-29T13:08:04.587Z,85.20
2019-01-29T13:10:36.578Z,85.30
2019-01-29T13:13:05.172Z,85.30
2019-01-29T13:15:33.510Z,85.60
2019-01-29T13:18:01.112Z,85.60
2019-01-29T13:20:28.786Z,85.60
2019-01-29T13:22:56.378Z,85.70
2019-01-29T13:25:26.850Z,85.50
2019-01-29T13:27:55.433Z,85.10
2019-01-29T13:30:31.840Z,85.40
2019-01-29T13:33:00.091Z,84.70
2019-01-29T13:35:32.797Z,84.70
2019-01-29T13:38:01.012Z,84.60
2019-01-29T13:40:28.872Z,84.20
2019-01-29T13:42:56.455Z,84.50
2019-01-29T13:45:24.310Z,85.00
2019-01-29T13:47:52.964Z,85.30
2019-01-29T13:50:28.589Z,85.50
2019-01-29T13:52:56.848Z,86.10
2019-01-29T13:55:24.641Z,86.60
2019-01-29T13:57:52.321Z,87.00
2019-01-29T14:00:25.188Z,87.10
2019-01-29T14:02:52.797Z,87.10
2019-01-29T14:05:20.429Z,87.00
2019-01-29T14:07:48.027Z,87.30
2019-01-29T14:10:16.344Z,87.20
2019-01-29T14:12:44.029Z,87.30
2019-01-29T14:15:17.603Z,87.60
2019-01-29T14:17:47.193Z,87.70
2019-01-29T14:20:15.922Z,87.80
2019-01-29T14:22:45.270Z,87.60
2019-01-29T14:25:13.287Z,87.20
2019-01-29T14:27:41.211Z,87.20
2019-01-29T14:30:16.356Z,87.30
2019-01-29T14:32:44.752Z,87.50
2019-01-29T14:35:14.012Z,87.80
2019-01-29T14:38:46.505Z,87.20
2019-01-29T14:41:16.301Z,87.00
2019-01-29T14:43:53.924Z,87.60
2019-01-29T14:46:21.554Z,87.60
2019-01-29T14:48:49.121Z,87.50
2019-01-29T14:51:17.081Z,87.70
2019-01-29T14:53:44.677Z,88.00
2019-01-29T14:56:12.185Z,87.70
2019-01-29T14:58:39.751Z,87.80
2019-01-29T15:01:07.707Z,87.70
2019-01-29T15:03:35.390Z,87.60
2019-01-29T15:06:03.300Z,87.80
2019-01-29T15:08:31.468Z,88.10
2019-01-29T15:10:59.637Z,88.30
2019-01-29T15:13:30.945Z,88.00
2019-01-29T15:16:07.098Z,87.90
2019-01-29T15:18:38.785Z,88.00
2019-01-29T15:21:07.365Z,88.20
2019-01-29T15:23:35.225Z,87.90
2019-01-29T15:26:03.103Z,88.20
2019-01-29T15:28:30.783Z,88.50
2019-01-29T15:30:58.590Z,88.10
2019-01-29T15:33:27.469Z,87.90
2019-01-29T15:35:55.448Z,88.00
2019-01-29T15:38:25.637Z,88.20
2019-01-29T15:41:15.918Z,88.40
2019-01-29T15:43:45.738Z,88.50
2019-01-29T15:46:13.225Z,88.50
2019-01-29T15:48:40.715Z,88.70
2019-01-29T15:51:08.374Z,88.50
2019-01-29T15:53:36.136Z,88.60
2019-01-29T15:56:04.205Z,88.70
2019-01-29T15:58:31.842Z,88.50
2019-01-29T16:00:59.523Z,88.50
2019-01-29T16:03:27.260Z,88.70
2019-01-29T16:05:54.920Z,88.60
2019-01-29T16:08:22.549Z,88.60
2019-01-29T16:10:50.459Z,88.60
2019-01-29T16:13:18.238Z,88.90
2019-01-29T16:16:19.775Z,89.00
2019-01-29T16:18:47.228Z,89.00
2019-01-29T16:21:14.974Z,89.00
2019-01-29T16:23:42.580Z,89.00
2019-01-29T16:26:10.483Z,89.10
2019-01-29T16:28:38.039Z,89.10
2019-01-29T16:31:06.052Z,89.50
2019-01-29T16:33:33.841Z,90.00
2019-01-29T16:36:01.398Z,90.00
2019-01-29T16:38:42.599Z,90.10
2019-01-29T16:41:11.162Z,90.10
2019-01-29T16:43:38.962Z,90.10
2019-01-29T16:46:06.946Z,90.20
2019-01-29T16:48:34.388Z,90.20
2019-01-29T16:51:02.387Z,90.20
2019-01-29T16:53:31.790Z,90.20
2019-01-29T16:55:59.285Z,90.20
2019-01-29T16:58:29.307Z,90.20
2019-01-29T17:00:57.012Z,90.40
2019-01-29T17:03:24.619Z,90.50
2019-01-29T17:05:52.465Z,90.50
2019-01-29T17:08:21.669Z,90.60
2019-01-29T17:10:50.168Z,90.70
2019-01-29T17:13:19.503Z,90.60
2019-01-29T17:15:51.765Z,90.60
2019-01-29T17:18:19.463Z,90.60
2019-01-29T17:20:47.065Z,90.60
2019-01-29T17:23:14.760Z,90.60
2019-01-29T17:25:42.376Z,90.60
2019-01-29T17:28:10.037Z,90.50
2019-01-29T17:30:40.576Z,90.90
2019-01-29T17:33:09.057Z,90.70
2019-01-29T17:35:39.384Z,90.70
2019-01-29T17:38:09.528Z,90.70
2019-01-29T17:40:37.327Z,90.60
2019-01-29T17:43:05.703Z,90.70
2019-01-29T17:45:36.978Z,90.70
2019-01-29T17:48:05.152Z,90.70
2019-01-29T17:50:35.283Z,90.70
2019-01-29T17:53:05.145Z,90.80
2019-01-29T17:55:35.270Z,90.90
2019-01-29T17:58:04.006Z,91.00
2019-01-29T18:00:33.492Z,91.10
2019-01-29T18:03:01.090Z,91.30
2019-01-29T18:05:28.686Z,91.40
2019-01-29T18:07:56.349Z,91.50
2019-01-29T18:10:24.256Z,91.60
2019-01-29T18:12:51.736Z,91.70
2019-01-29T18:15:23.896Z,91.30
2019-01-29T18:17:52.107Z,91.00
2019-01-29T18:20:20.006Z,91.70
2019-01-29T18:22:47.718Z,91.80
2019-01-29T18:25:16.635Z,91.60
2019-01-29T18:27:44.602Z,91.50
2019-01-29T18:30:25.867Z,91.30
2019-01-29T18:32:53.610Z,91.20
2019-01-29T18:35:21.316Z,91.00
2019-01-29T18:37:48.938Z,91.20
2019-01-29T18:40:26.394Z,91.10
2019-01-29T18:42:54.198Z,91.10
2019-01-29T18:45:22.672Z,90.90
2019-01-29T18:48:10.100Z,90.80
2019-01-29T18:50:39.959Z,90.60
2019-01-29T18:53:09.151Z,90.70
2019-01-29T18:55:37.042Z,90.60
2019-01-29T18:58:11.521Z,90.70
2019-01-29T19:00:34.445Z,90.60
2019-01-29T19:03:02.167Z,90.60
2019-01-29T19:05:29.661Z,90.60
2019-01-29T19:07:57.193Z,90.60
2019-01-29T19:10:25.030Z,90.70
2019-01-29T19:12:52.708Z,90.40
2019-01-29T19:15:22.222Z,90.30
2019-01-29T19:17:49.908Z,90.40
2019-01-29T19:20:20.436Z,90.50
2019-01-29T19:22:48.179Z,90.30
2019-01-29T19:25:16.069Z,90.30
2019-01-29T19:27:43.914Z,90.20
2019-01-29T19:30:25.192Z,90.40
2019-01-29T19:32:52.814Z,90.50
2019-01-29T19:35:23.350Z,90.50
2019-01-29T19:37:51.107Z,90.40
2019-01-29T19:40:18.770Z,90.40
2019-01-29T19:42:46.516Z,90.40
2019-01-29T19:45:17.946Z,90.40
2019-01-29T19:47:46.872Z,90.40
2019-01-29T19:50:18.325Z,90.60
2019-01-29T19:52:46.129Z,90.70
2019-01-29T19:55:14.125Z,90.80
2019-01-29T19:57:42.567Z,90.80
2019-01-29T20:00:20.509Z,90.80
2019-01-29T20:02:49.600Z,90.80
2019-01-29T20:05:17.333Z,90.90
2019-01-29T20:07:45.207Z,90.90
2019-01-29T20:10:13.889Z,90.90
2019-01-29T20:12:41.682Z,91.00
2019-01-29T20:15:11.704Z,90.90
2019-01-29T20:17:39.503Z,90.90
2019-01-29T20:20:11.350Z,91.20
2019-01-29T20:22:38.737Z,91.30
2019-01-29T20:25:06.920Z,91.20
2019-01-29T20:27:34.615Z,91.20
2019-01-29T20:30:07.733Z,91.30
2019-01-29T20:32:40.076Z,91.20
2019-01-29T20:35:08.026Z,91.20
2019-01-29T20:37:35.548Z,91.20
2019-01-29T20:40:04.327Z,91.30
2019-01-29T20:42:32.553Z,91.30
2019-01-29T20:45:00.387Z,91.30
2019-01-29T20:47:28.431Z,91.20
2019-01-29T20:49:57.496Z,91.10
2019-01-29T20:52:24.963Z,91.30
2019-01-29T20:54:52.591Z,91.10
2019-01-29T20:57:21.245Z,91.00
2019-01-29T20:59:49.081Z,90.90
2019-01-29T21:02:16.681Z,90.90
2019-01-29T21:04:45.394Z,91.00
2019-01-29T21:07:13.334Z,91.00
2019-01-29T21:09:44.064Z,91.00
2019-01-29T21:12:16.556Z,91.20
2019-01-29T21:14:45.187Z,91.10
2019-01-29T21:17:24.146Z,91.10
2019-01-29T21:19:54.862Z,91.00
2019-01-29T21:22:24.216Z,91.00
2019-01-29T21:24:53.283Z,90.80
2019-01-29T21:27:22.761Z,90.80
2019-01-29T21:29:50.339Z,90.80
2019-01-29T21:32:18.728Z,90.90
2019-01-29T21:34:47.016Z,91.00
2019-01-29T21:37:15.374Z,91.00
2019-01-29T21:39:43.030Z,91.00
2019-01-29T21:42:11.410Z,91.10
2019-01-29T21:44:39.142Z,91.30
2019-01-29T21:47:06.869Z,91.50
2019-01-29T21:49:34.338Z,91.50
2019-01-29T21:52:01.993Z,91.40
2019-01-29T21:54:29.349Z,91.30
2019-01-29T21:56:56.884Z,91.30
2019-01-29T21:59:24.333Z,91.20
2019-01-29T22:01:52.032Z,91.20
2019-01-29T22:04:19.845Z,91.30
2019-01-29T22:06:48.150Z,91.30
2019-01-29T22:09:15.904Z,91.50
2019-01-29T22:11:43.465Z,91.80
2019-01-29T22:14:13.182Z,92.00
2019-01-29T22:16:40.694Z,92.10
2019-01-29T22:19:08.430Z,92.00
2019-01-29T22:21:36.063Z,92.10
2019-01-29T22:24:04.028Z,92.20
2019-01-29T22:26:31.694Z,92.10
2019-01-29T22:28:59.386Z,92.10
2019-01-29T22:31:27.687Z,92.10
2019-01-29T22:33:55.319Z,92.00
2019-01-29T22:36:22.967Z,91.90
2019-01-29T22:38:50.501Z,91.90
2019-01-29T22:41:17.980Z,92.00
2019-01-29T22:43:45.427Z,91.90
2019-01-29T22:46:13.046Z,91.80
2019-01-29T22:48:40.593Z,91.80
2019-01-29T22:51:08.364Z,91.90
2019-01-29T22:53:35.988Z,92.10
2019-01-29T22:56:04.884Z,92.10
2019-01-29T22:58:32.394Z,92.10
2019-01-29T23:01:34.926Z,92.10
2019-01-29T23:04:39.321Z,92.00
2019-01-29T23:07:24.817Z,92.00
2019-01-29T23:09:52.452Z,92.10
2019-01-29T23:12:20.038Z,92.20
2019-01-29T23:14:47.599Z,92.20
2019-01-29T23:17:15.126Z,92.00
2019-01-29T23:19:42.857Z,91.80
2019-01-29T23:22:10.753Z,91.70
2019-01-29T23:24:38.319Z,91.70
2019-01-29T23:27:06.052Z,91.60
2019-01-29T23:29:42.993Z,91.60
2019-01-29T23:32:03.345Z,91.60
2019-01-29T23:34:30.838Z,91.70
2019-01-29T23:36:58.302Z,91.70
2019-01-29T23:39:25.819Z,91.80
2019-01-29T23:41:53.485Z,91.80
2019-01-29T23:44:21.282Z,91.80
2019-01-29T23:46:49.522Z,91.80
2019-01-29T23:49:17.147Z,91.80
2019-01-29T23:51:44.710Z,91.70
2019-01-29T23:54:12.609Z,91.70
2019-01-29T23:56:40.235Z,91.70
2019-01-29T23:59:07.823Z,91.70
